Nagano, Japan
Current Conditions -  °F | °C
As of 6:00 PM on Saturday 25 Oct 2014 (Local Time) from RJNT Reporting Station
Few Clouds Few Clouds  
Wind Chill: 63°   Ceiling: Unl
Heat Index: 63°   Visibility: 6mi
Dew Point: 52°   Wind: 5mph
Humidity: 68%   Direction: 210°SSW
Pressure: 30.15"   Gusts: NA
Location:  36.65°N, 138.18°E
Report Text: RJNT 250900Z 21004KT 9999 FEW060 17/11 Q1021
Loading
Personal Weather Stations






























Interactive Weather Map New forecast layout! Learn more

10-Day Weather Forecast

Advertisements
Track Severe Weather on mobile